createdAt,value
2023-04-15T00:00:40.158Z,35.75
2023-04-15T00:03:07.180Z,34.15
2023-04-15T00:05:33.950Z,33.65
2023-04-15T00:08:01.270Z,31.17
2023-04-15T00:10:27.979Z,33.88
2023-04-15T00:15:20.736Z,29.98
2023-04-15T00:17:47.171Z,26.52
2023-04-15T00:20:13.516Z,22.58
2023-04-15T00:22:39.824Z,21.77
2023-04-15T00:25:06.314Z,19.48
2023-04-15T00:27:33.147Z,16.83
2023-04-15T00:32:25.740Z,14.65
2023-04-15T00:34:52.720Z,18.60
2023-04-15T00:37:19.092Z,13.43
2023-04-15T00:39:45.563Z,15.32
2023-04-15T00:42:13.340Z,14.55
2023-04-15T00:44:39.775Z,11.20
2023-04-15T00:47:06.487Z,12.82
2023-04-15T00:49:33.104Z,13.50
2023-04-15T00:51:59.434Z,10.85
2023-04-15T00:54:26.600Z,10.63
2023-04-15T00:56:53.028Z,12.00
2023-04-15T00:59:20.137Z,11.50
2023-04-15T01:01:46.958Z,9.85
2023-04-15T01:06:40.219Z,8.75
2023-04-15T01:09:06.604Z,10.48
2023-04-15T01:11:34.266Z,14.00
2023-04-15T01:14:00.958Z,10.77
2023-04-15T01:16:28.712Z,11.57
2023-04-15T01:18:55.650Z,13.52
2023-04-15T01:21:23.216Z,10.38
2023-04-15T01:23:50.844Z,12.52
2023-04-15T01:26:17.549Z,10.73
2023-04-15T01:28:45.596Z,12.93
2023-04-15T01:31:15.431Z,12.68
2023-04-15T01:33:42.342Z,13.45
2023-04-15T01:36:09.967Z,10.85
2023-04-15T01:38:37.064Z,15.13
2023-04-15T01:41:07.995Z,8.85
2023-04-15T01:43:36.078Z,11.18
2023-04-15T01:46:02.724Z,9.57
2023-04-15T01:48:29.083Z,10.18
2023-04-15T01:50:58.964Z,11.70
2023-04-15T01:53:25.714Z,8.82
2023-04-15T01:58:18.747Z,11.05
2023-04-15T02:00:45.445Z,11.02
2023-04-15T02:05:38.069Z,9.85
2023-04-15T02:08:04.681Z,11.55
2023-04-15T02:10:31.068Z,13.10
2023-04-15T02:12:58.328Z,10.27
2023-04-15T02:15:27.762Z,9.57
2023-04-15T02:17:55.360Z,9.85
2023-04-15T02:20:22.411Z,9.85
2023-04-15T02:22:48.980Z,10.30
2023-04-15T02:25:16.987Z,8.55
2023-04-15T02:27:44.354Z,10.85
2023-04-15T02:30:10.871Z,11.82
2023-04-15T02:32:38.079Z,9.60
2023-04-15T02:35:05.640Z,12.48
2023-04-15T02:37:32.039Z,10.57
2023-04-15T02:39:59.611Z,11.05
2023-04-15T02:42:28.696Z,10.45
2023-04-15T02:44:55.453Z,10.52
2023-04-15T02:47:24.588Z,12.60
2023-04-15T02:49:50.952Z,10.05
2023-04-15T02:52:17.338Z,11.88
2023-04-15T02:54:43.646Z,12.05
2023-04-15T02:57:11.617Z,9.90
2023-04-15T02:59:39.319Z,13.13
2023-04-15T03:02:07.840Z,11.43
2023-04-15T03:04:34.423Z,9.48
2023-04-15T03:07:01.760Z,13.18
2023-04-15T03:09:28.159Z,10.85
2023-04-15T03:11:55.332Z,11.23
2023-04-15T03:14:22.499Z,13.32
2023-04-15T03:16:50.513Z,10.38
2023-04-15T03:19:17.594Z,12.48
2023-04-15T03:21:43.945Z,18.38
2023-04-15T03:24:10.644Z,13.98
2023-04-15T03:26:37.039Z,9.98
2023-04-15T03:29:10.194Z,12.00
2023-04-15T03:31:36.671Z,11.10
2023-04-15T03:34:02.997Z,12.02
2023-04-15T03:36:30.305Z,12.18
2023-04-15T03:38:56.706Z,9.90
2023-04-15T03:41:23.093Z,10.10
2023-04-15T03:43:51.970Z,10.70
2023-04-15T03:46:18.533Z,10.65
2023-04-15T03:48:44.938Z,11.98
2023-04-15T03:51:11.632Z,10.55
2023-04-15T03:53:37.926Z,13.75
2023-04-15T03:56:04.429Z,10.95
2023-04-15T03:58:30.714Z,12.10
2023-04-15T04:00:57.062Z,13.25
2023-04-15T04:03:23.814Z,11.13
2023-04-15T04:05:51.213Z,15.40
2023-04-15T04:08:19.415Z,12.65
2023-04-15T04:10:45.915Z,13.82
2023-04-15T04:13:12.218Z,15.45
2023-04-15T04:15:38.561Z,14.98
2023-04-15T04:18:05.021Z,14.30
2023-04-15T04:20:34.006Z,14.43
2023-04-15T04:23:00.355Z,9.00
2023-04-15T04:25:27.326Z,10.95
2023-04-15T04:27:53.724Z,10.35
2023-04-15T04:30:20.046Z,9.45
2023-04-15T04:32:46.345Z,9.43
2023-04-15T04:35:12.766Z,10.32
2023-04-15T04:37:39.081Z,12.13
2023-04-15T04:40:05.793Z,12.98
2023-04-15T04:42:32.147Z,10.32
2023-04-15T04:44:58.516Z,17.83
2023-04-15T04:47:24.924Z,10.38
2023-04-15T04:49:51.241Z,10.52
2023-04-15T04:52:17.621Z,13.35
2023-04-15T04:54:43.931Z,11.82
2023-04-15T04:57:10.510Z,11.30
2023-04-15T04:59:37.020Z,15.48
2023-04-15T05:02:03.782Z,13.18
2023-04-15T05:06:59.227Z,11.38
2023-04-15T05:09:25.520Z,13.30
2023-04-15T05:11:51.838Z,11.88
2023-04-15T05:14:18.210Z,13.27
2023-04-15T05:16:44.613Z,12.30
2023-04-15T05:19:11.074Z,12.40
2023-04-15T05:21:39.327Z,14.18
2023-04-15T05:24:06.301Z,10.52
2023-04-15T05:26:32.671Z,13.38
2023-04-15T05:28:59.026Z,15.23
2023-04-15T05:31:25.656Z,11.48
2023-04-15T05:33:52.116Z,11.75
2023-04-15T05:36:18.477Z,10.10
2023-04-15T05:38:44.858Z,12.85
2023-04-15T05:41:11.335Z,12.60
2023-04-15T05:43:37.673Z,14.52
2023-04-15T05:46:04.085Z,14.45
2023-04-15T05:48:30.516Z,12.88
2023-04-15T05:50:56.829Z,11.52
2023-04-15T05:53:23.237Z,13.15
2023-04-15T05:55:49.517Z,13.30
2023-04-15T05:58:15.824Z,12.13
2023-04-15T06:00:42.175Z,15.40
2023-04-15T06:03:08.580Z,14.85
2023-04-15T06:05:34.928Z,15.88
2023-04-15T06:08:01.487Z,12.82
2023-04-15T06:10:27.889Z,13.38
2023-04-15T06:12:54.365Z,14.77
2023-04-15T06:15:20.768Z,14.30
2023-04-15T06:17:47.136Z,21.83
2023-04-15T06:20:13.438Z,15.13
2023-04-15T06:22:39.991Z,12.07
2023-04-15T06:25:08.127Z,14.32
2023-04-15T06:27:34.507Z,12.07
2023-04-15T06:30:01.318Z,14.82
2023-04-15T06:34:54.119Z,13.35
2023-04-15T06:37:20.664Z,9.85
2023-04-15T06:39:47.133Z,13.60
2023-04-15T06:42:13.761Z,13.38
2023-04-15T06:44:40.174Z,10.73
2023-04-15T06:47:06.617Z,12.85
2023-04-15T06:49:33.670Z,11.40
2023-04-15T06:52:00.659Z,11.65
2023-04-15T06:54:27.334Z,12.32
2023-04-15T06:59:20.056Z,10.68
2023-04-15T07:01:46.483Z,13.02
2023-04-15T07:04:13.489Z,11.02
2023-04-15T07:06:39.844Z,11.60
2023-04-15T07:09:06.262Z,12.38
2023-04-15T07:11:32.623Z,13.10
2023-04-15T07:13:59.045Z,12.52
2023-04-15T07:16:26.633Z,12.65
2023-04-15T07:18:55.834Z,15.32
2023-04-15T07:21:22.212Z,12.75
2023-04-15T07:23:48.583Z,13.82
2023-04-15T07:26:14.923Z,12.48
2023-04-15T07:28:41.550Z,12.93
2023-04-15T07:31:07.919Z,11.38
2023-04-15T07:33:34.353Z,11.50
2023-04-15T07:36:00.826Z,10.85
2023-04-15T07:38:27.276Z,9.88
2023-04-15T07:40:54.250Z,10.98
2023-04-15T07:43:45.966Z,10.48
2023-04-15T07:46:12.699Z,11.30
2023-04-15T07:48:39.057Z,10.95
2023-04-15T07:51:05.919Z,11.82
2023-04-15T07:53:33.168Z,10.57
2023-04-15T07:55:59.713Z,11.27
2023-04-15T07:58:26.196Z,9.60
2023-04-15T08:00:52.797Z,9.07
2023-04-15T08:05:47.309Z,10.40
2023-04-15T08:08:14.036Z,8.25
2023-04-15T08:18:01.083Z,8.45
2023-04-15T08:20:27.621Z,9.45
2023-04-15T08:22:53.971Z,6.85
2023-04-15T08:25:20.592Z,7.43
2023-04-15T08:32:39.768Z,6.70
2023-04-15T08:35:06.426Z,7.65
2023-04-15T08:39:59.112Z,7.07
2023-04-15T08:42:30.340Z,5.60
2023-04-15T08:44:58.121Z,6.47
2023-04-15T08:47:27.240Z,7.10
2023-04-15T08:49:55.308Z,6.03
2023-04-15T08:52:22.519Z,5.80
2023-04-15T08:54:48.880Z,6.32
2023-04-15T08:57:15.460Z,7.10
2023-04-15T08:59:42.858Z,4.70
2023-04-15T09:02:09.264Z,4.90
2023-04-15T09:04:35.665Z,5.43
2023-04-15T09:07:02.150Z,5.63
2023-04-15T09:09:29.094Z,7.68
2023-04-15T09:11:55.855Z,5.35
2023-04-15T09:14:22.788Z,6.00
2023-04-15T09:16:59.111Z,5.55
2023-04-15T09:19:25.766Z,6.95
2023-04-15T09:24:18.569Z,7.28
2023-04-15T09:29:13.566Z,7.03
2023-04-15T09:31:40.653Z,8.70
2023-04-15T09:34:07.236Z,8.05
2023-04-15T09:39:00.477Z,6.80
2023-04-15T09:46:19.545Z,7.15
2023-04-15T09:51:12.552Z,6.75
2023-04-15T09:53:38.935Z,6.38
2023-04-15T09:56:07.868Z,6.45
2023-04-15T09:58:35.330Z,4.80
2023-04-15T10:01:04.318Z,10.20
2023-04-15T10:03:31.806Z,7.82
2023-04-15T10:05:59.396Z,5.30
2023-04-15T10:08:27.080Z,6.72
2023-04-15T10:10:53.885Z,5.93
2023-04-15T10:13:28.586Z,6.57
2023-04-15T10:16:02.430Z,5.55
2023-04-15T10:18:30.531Z,4.13
2023-04-15T10:20:57.055Z,5.22
2023-04-15T10:25:52.011Z,5.78
2023-04-15T10:28:19.520Z,7.03
2023-04-15T10:30:47.929Z,5.68
2023-04-15T10:33:14.382Z,5.38
2023-04-15T10:35:40.803Z,5.50
2023-04-15T10:38:25.995Z,6.45
2023-04-15T10:40:52.453Z,7.30
2023-04-15T10:43:26.328Z,6.00
2023-04-15T10:45:53.752Z,5.43
2023-04-15T10:48:20.492Z,5.38
2023-04-15T10:50:56.981Z,4.68
2023-04-15T10:53:29.976Z,6.40
2023-04-15T10:55:57.266Z,4.68
2023-04-15T10:58:24.989Z,4.88
2023-04-15T11:00:54.818Z,5.18
2023-04-15T11:03:37.897Z,4.80
2023-04-15T11:06:04.783Z,4.60
2023-04-15T11:08:50.117Z,3.88
2023-04-15T11:11:16.474Z,5.15
2023-04-15T11:13:50.211Z,4.10
2023-04-15T11:16:17.006Z,4.95
2023-04-15T11:18:53.105Z,4.57
2023-04-15T11:21:19.773Z,8.43
2023-04-15T11:23:49.172Z,6.07
2023-04-15T11:26:15.750Z,4.30
2023-04-15T11:28:43.391Z,19.40
2023-04-15T11:31:16.259Z,5.15
2023-04-15T11:34:03.106Z,3.88
2023-04-15T11:36:32.392Z,3.80
2023-04-15T11:38:59.673Z,4.65
2023-04-15T11:41:27.502Z,4.28
2023-04-15T11:43:53.903Z,3.47
2023-04-15T11:46:28.558Z,4.05
2023-04-15T11:48:54.926Z,5.22
2023-04-15T11:53:55.890Z,4.43
2023-04-15T11:56:26.215Z,4.35
2023-04-15T11:58:53.762Z,4.45
2023-04-15T12:01:20.367Z,4.30
2023-04-15T12:03:49.412Z,3.47
2023-04-15T12:06:19.123Z,4.05
2023-04-15T12:09:01.884Z,3.97
2023-04-15T12:11:32.529Z,9.68
2023-04-15T12:14:17.927Z,5.63
2023-04-15T12:16:48.583Z,4.72
2023-04-15T12:19:17.900Z,3.88
2023-04-15T12:21:45.658Z,4.70
2023-04-15T12:24:15.370Z,5.15
2023-04-15T12:26:46.176Z,4.60
2023-04-15T12:29:13.197Z,4.82
2023-04-15T12:31:50.809Z,3.92
2023-04-15T12:34:17.424Z,3.60
2023-04-15T12:36:43.777Z,3.13
2023-04-15T12:41:36.802Z,7.95
2023-04-15T12:46:30.641Z,5.65
2023-04-15T12:48:57.008Z,3.95
2023-04-15T12:53:51.629Z,4.55
2023-04-15T12:56:18.151Z,4.70
2023-04-15T13:01:11.319Z,2.97
2023-04-15T13:03:37.845Z,7.90
2023-04-15T13:06:05.106Z,2.80
2023-04-15T13:08:31.985Z,3.67
2023-04-15T13:10:58.433Z,4.38
2023-04-15T13:13:24.832Z,3.30
2023-04-15T13:18:23.714Z,3.20
2023-04-15T13:20:51.200Z,3.35
2023-04-15T13:23:17.788Z,3.45
2023-04-15T13:25:44.127Z,5.90
2023-04-15T13:28:11.259Z,3.90
2023-04-15T13:30:38.451Z,4.07
2023-04-15T13:33:05.121Z,3.22
2023-04-15T13:35:32.519Z,4.03
2023-04-15T13:37:58.904Z,4.47
2023-04-15T13:40:25.332Z,4.75
2023-04-15T13:45:19.439Z,5.80
2023-04-15T13:47:45.941Z,4.28
2023-04-15T13:52:38.780Z,3.35
2023-04-15T13:55:08.810Z,3.90
2023-04-15T13:57:47.441Z,3.90
2023-04-15T14:00:14.831Z,2.92
2023-04-15T14:02:42.268Z,3.70
2023-04-15T14:05:09.150Z,5.50
2023-04-15T14:07:35.884Z,4.18
2023-04-15T14:10:02.282Z,4.07
2023-04-15T14:12:28.609Z,3.25
2023-04-15T14:14:55.009Z,3.63
2023-04-15T14:17:21.577Z,4.15
2023-04-15T14:24:40.480Z,5.30
2023-04-15T14:27:08.545Z,3.88
2023-04-15T14:29:34.891Z,2.53
2023-04-15T14:32:11.112Z,5.72
2023-04-15T14:34:38.793Z,5.07
2023-04-15T14:37:05.150Z,10.00
2023-04-15T14:39:31.508Z,4.75
2023-04-15T14:41:57.869Z,6.88
2023-04-15T14:44:24.241Z,6.68
2023-04-15T14:46:51.127Z,4.53
2023-04-15T14:49:17.632Z,4.22
2023-04-15T14:51:44.092Z,4.20
2023-04-15T14:56:37.070Z,5.38
2023-04-15T14:59:03.608Z,7.93
2023-04-15T15:01:30.291Z,4.07
2023-04-15T15:28:19.631Z,6.03
2023-04-15T15:30:45.918Z,6.22
2023-04-15T15:33:12.261Z,7.03
2023-04-15T15:35:38.954Z,4.03
2023-04-15T15:38:06.334Z,7.38
2023-04-15T15:40:32.701Z,4.60
2023-04-15T15:42:59.026Z,5.97
2023-04-15T15:45:25.483Z,9.63
2023-04-15T15:47:52.207Z,6.78
2023-04-15T15:50:18.569Z,8.93
2023-04-15T15:52:45.036Z,5.38
2023-04-15T15:55:11.410Z,9.20
2023-04-15T15:57:37.705Z,8.65
2023-04-15T16:00:12.171Z,5.20
2023-04-15T16:03:05.109Z,7.22
2023-04-15T16:05:25.955Z,9.65
2023-04-15T16:07:52.428Z,4.10
2023-04-15T16:10:18.720Z,10.55
2023-04-15T16:12:45.137Z,7.75
2023-04-15T16:15:11.984Z,8.13
2023-04-15T16:17:38.500Z,5.05
2023-04-15T16:22:32.577Z,6.70
2023-04-15T16:24:59.261Z,6.95
2023-04-15T16:29:52.157Z,6.45
2023-04-15T16:32:18.530Z,3.97
2023-04-15T16:34:44.963Z,3.70
2023-04-15T16:37:11.374Z,8.32
2023-04-15T16:39:37.842Z,5.03
2023-04-15T16:42:04.225Z,7.90
2023-04-15T16:44:30.682Z,7.18
2023-04-15T16:46:56.995Z,3.78
2023-04-15T16:49:23.403Z,9.18
2023-04-15T16:51:54.615Z,9.05
2023-04-15T16:54:21.012Z,6.57
2023-04-15T16:56:47.281Z,5.55
2023-04-15T16:59:13.600Z,6.60
2023-04-15T17:01:40.006Z,5.00
2023-04-15T17:04:07.182Z,7.63
2023-04-15T17:06:33.952Z,4.45
2023-04-15T17:09:00.554Z,10.90
2023-04-15T17:11:27.642Z,7.97
2023-04-15T17:13:54.197Z,6.70
2023-04-15T17:18:47.454Z,8.10
2023-04-15T17:21:15.211Z,9.15
2023-04-15T17:23:41.655Z,3.90
2023-04-15T17:26:08.206Z,5.47
2023-04-15T17:28:34.605Z,6.68
2023-04-15T17:31:04.369Z,8.63
2023-04-15T17:34:01.489Z,7.38
2023-04-15T17:36:21.804Z,8.35
2023-04-15T17:38:48.264Z,9.38
2023-04-15T17:41:14.580Z,10.10
2023-04-15T17:43:41.023Z,12.15
2023-04-15T17:46:07.844Z,6.65
2023-04-15T17:48:34.684Z,14.85
2023-04-15T17:51:01.124Z,12.02
2023-04-15T17:53:27.614Z,7.10
2023-04-15T17:55:54.312Z,9.68
2023-04-15T18:00:47.083Z,9.90
2023-04-15T18:03:13.628Z,8.85
2023-04-15T18:08:08.923Z,10.48
2023-04-15T18:10:35.404Z,7.07
2023-04-15T18:13:03.259Z,7.75
2023-04-15T18:15:33.197Z,11.68
2023-04-15T18:17:59.778Z,10.48
2023-04-15T18:20:26.125Z,10.75
2023-04-15T18:22:52.663Z,13.30
2023-04-15T18:25:19.016Z,6.78
2023-04-15T18:27:45.603Z,7.32
2023-04-15T18:30:15.273Z,6.93
2023-04-15T18:32:41.729Z,10.35
2023-04-15T18:35:08.600Z,8.80
2023-04-15T18:37:35.350Z,10.57
2023-04-15T18:40:01.828Z,6.57
2023-04-15T18:42:28.262Z,6.53
2023-04-15T18:44:54.941Z,7.28
2023-04-15T18:49:47.652Z,11.25
2023-04-15T18:52:14.051Z,6.30
2023-04-15T18:54:40.633Z,6.15
2023-04-15T18:57:07.047Z,5.30
2023-04-15T18:59:34.481Z,4.32
2023-04-15T19:02:02.048Z,8.95
2023-04-15T19:04:31.647Z,6.82
2023-04-15T19:06:59.192Z,3.97
2023-04-15T19:09:26.081Z,7.35
2023-04-15T19:11:52.653Z,8.05
2023-04-15T19:14:19.156Z,7.13
2023-04-15T19:16:45.651Z,9.10
2023-04-15T19:19:14.450Z,8.05
2023-04-15T19:21:41.261Z,5.00
2023-04-15T19:26:34.106Z,3.95
2023-04-15T19:29:00.486Z,4.35
2023-04-15T19:31:27.054Z,9.02
2023-04-15T19:33:53.730Z,8.68
2023-04-15T19:36:20.254Z,8.20
2023-04-15T19:38:46.654Z,6.38
2023-04-15T19:41:13.168Z,4.15
2023-04-15T19:43:39.568Z,8.18
2023-04-15T19:46:06.464Z,9.98
2023-04-15T19:48:32.953Z,7.72
2023-04-15T19:51:00.515Z,7.28
2023-04-15T19:53:27.069Z,6.47
2023-04-15T19:55:53.442Z,5.18
2023-04-15T19:58:19.876Z,4.68
2023-04-15T20:00:46.309Z,5.95
2023-04-15T20:03:12.786Z,7.22
2023-04-15T20:05:39.268Z,10.40
2023-04-15T20:08:05.659Z,6.10
2023-04-15T20:10:32.234Z,6.60
2023-04-15T20:12:58.735Z,9.90
2023-04-15T20:15:25.305Z,6.55
2023-04-15T20:17:51.829Z,9.30
2023-04-15T20:20:18.579Z,7.28
2023-04-15T20:25:11.467Z,9.85
2023-04-15T20:27:37.993Z,7.75
2023-04-15T20:30:04.994Z,7.03
2023-04-15T20:32:35.265Z,9.02
2023-04-15T20:35:03.103Z,9.13
2023-04-15T20:37:30.753Z,9.90
2023-04-15T20:39:57.142Z,7.45
2023-04-15T20:42:23.459Z,12.40
2023-04-15T20:44:49.834Z,8.05
2023-04-15T20:47:16.532Z,10.18
2023-04-15T20:49:43.049Z,11.07
2023-04-15T20:52:09.854Z,7.43
2023-04-15T20:57:02.560Z,9.43
2023-04-15T20:59:28.991Z,8.75
2023-04-15T21:01:57.025Z,8.80
2023-04-15T21:04:24.408Z,12.23
2023-04-15T21:06:52.048Z,10.98
2023-04-15T21:09:18.767Z,9.13
2023-04-15T21:14:26.708Z,9.25
2023-04-15T21:16:53.055Z,10.25
2023-04-15T21:19:19.402Z,10.70
2023-04-15T21:21:46.009Z,10.98
2023-04-15T21:24:12.371Z,12.05
2023-04-15T21:26:38.777Z,6.43
2023-04-15T21:29:06.601Z,10.05
2023-04-15T21:31:34.435Z,6.85
2023-04-15T21:34:00.767Z,6.53
2023-04-15T21:36:27.968Z,10.20
2023-04-15T21:38:55.328Z,10.13
2023-04-15T21:41:21.712Z,9.63
2023-04-15T21:43:48.128Z,11.05
2023-04-15T21:46:23.537Z,4.85
2023-04-15T21:48:51.499Z,8.32
2023-04-15T21:53:44.209Z,9.88
2023-04-15T21:56:10.863Z,4.38
2023-04-15T21:58:37.298Z,5.60
2023-04-15T22:01:04.310Z,6.70
2023-04-15T22:03:33.421Z,8.43
2023-04-15T22:06:00.575Z,6.15
2023-04-15T22:08:27.105Z,7.70
2023-04-15T22:10:53.834Z,6.00
2023-04-15T22:18:13.221Z,6.53
2023-04-15T22:20:39.932Z,6.50
2023-04-15T22:25:36.946Z,7.32
2023-04-15T22:28:06.678Z,9.55
2023-04-15T22:30:34.114Z,4.88
2023-04-15T22:33:01.228Z,7.47
2023-04-15T22:35:27.568Z,6.30
2023-04-15T22:37:53.943Z,9.23
2023-04-15T22:40:20.444Z,6.78
2023-04-15T22:42:46.753Z,9.85
2023-04-15T22:45:13.115Z,5.35
2023-04-15T22:47:39.461Z,9.73
2023-04-15T22:50:06.289Z,10.82
2023-04-15T22:52:32.664Z,13.50
2023-04-15T22:54:59.307Z,12.30
2023-04-15T22:59:54.243Z,11.48
2023-04-15T23:02:20.662Z,10.25
2023-04-15T23:04:47.163Z,12.15
2023-04-15T23:07:13.625Z,9.20
2023-04-15T23:09:40.246Z,12.20
2023-04-15T23:12:06.777Z,14.75
2023-04-15T23:14:33.246Z,10.20
2023-04-15T23:16:59.619Z,11.00
2023-04-15T23:19:25.903Z,10.30
2023-04-15T23:21:52.756Z,6.00
2023-04-15T23:24:19.115Z,11.95
2023-04-15T23:26:45.562Z,15.82
2023-04-15T23:29:12.084Z,11.25
2023-04-15T23:31:38.589Z,9.38
2023-04-15T23:34:04.985Z,10.10
2023-04-15T23:36:31.894Z,11.10
2023-04-15T23:38:58.267Z,13.95
2023-04-15T23:41:24.620Z,11.63
2023-04-15T23:43:50.920Z,11.48
2023-04-15T23:46:17.399Z,11.27
2023-04-15T23:48:43.777Z,10.90
2023-04-15T23:51:10.206Z,8.98
2023-04-15T23:53:36.663Z,17.35
2023-04-15T23:56:03.268Z,6.32
2023-04-15T23:58:29.727Z,12.57
